createdAt,value
2019-06-26T00:02:20.603Z,22.40
2019-06-26T00:04:50.976Z,22.40
2019-06-26T00:07:21.570Z,22.50
2019-06-26T00:09:52.239Z,22.40
2019-06-26T00:12:22.949Z,22.40
2019-06-26T00:14:53.711Z,22.40
2019-06-26T00:17:24.436Z,22.40
2019-06-26T00:19:54.766Z,22.40
2019-06-26T00:22:25.185Z,22.40
2019-06-26T00:24:55.919Z,22.40
2019-06-26T00:27:26.660Z,22.40
2019-06-26T00:29:57.075Z,22.40
2019-06-26T00:32:27.424Z,22.40
2019-06-26T00:34:57.767Z,22.40
2019-06-26T00:37:28.168Z,22.40
2019-06-26T00:39:58.533Z,22.30
2019-06-26T00:42:29.240Z,22.30
2019-06-26T00:44:59.961Z,22.30
2019-06-26T00:47:30.597Z,22.20
2019-06-26T00:50:01.450Z,22.20
2019-06-26T00:52:31.837Z,22.10
2019-06-26T00:55:02.206Z,22.10
2019-06-26T00:57:32.576Z,22.10
2019-06-26T01:00:05.977Z,22.10
2019-06-26T01:02:36.381Z,22.10
2019-06-26T01:05:10.077Z,22.00
2019-06-26T01:07:40.781Z,21.90
2019-06-26T01:10:12.614Z,21.80
2019-06-26T01:12:42.966Z,21.80
2019-06-26T01:15:13.396Z,21.70
2019-06-26T01:17:43.792Z,21.60
2019-06-26T01:20:14.189Z,21.60
2019-06-26T01:22:44.542Z,21.60
2019-06-26T01:25:15.425Z,21.60
2019-06-26T01:27:46.204Z,21.50
2019-06-26T01:30:16.575Z,21.40
2019-06-26T01:32:46.928Z,21.30
2019-06-26T01:35:17.327Z,21.20
2019-06-26T01:37:47.675Z,21.20
2019-06-26T01:40:18.470Z,21.20
2019-06-26T01:42:49.574Z,21.20
2019-06-26T01:45:20.305Z,21.20
2019-06-26T01:47:50.740Z,21.20
2019-06-26T01:50:21.792Z,21.10
2019-06-26T01:52:52.221Z,21.10
2019-06-26T01:55:22.773Z,21.20
2019-06-26T01:57:53.581Z,21.20
2019-06-26T02:00:25.056Z,21.20
2019-06-26T02:02:56.003Z,21.20
2019-06-26T02:05:26.349Z,21.30
2019-06-26T02:07:56.784Z,21.30
2019-06-26T02:10:27.282Z,21.30
2019-06-26T02:12:57.998Z,21.20
2019-06-26T02:15:28.749Z,21.20
2019-06-26T02:17:59.121Z,21.20
2019-06-26T02:20:29.523Z,21.20
2019-06-26T02:23:00.265Z,21.30
2019-06-26T02:25:30.644Z,21.30
2019-06-26T02:28:01.080Z,21.30
2019-06-26T02:30:31.707Z,21.20
2019-06-26T02:33:02.058Z,21.20
2019-06-26T02:35:32.537Z,21.20
2019-06-26T02:38:02.930Z,21.10
2019-06-26T02:40:33.540Z,21.10
2019-06-26T02:43:07.084Z,21.10
2019-06-26T02:45:35.964Z,21.20
2019-06-26T02:48:06.709Z,21.20
2019-06-26T02:50:37.170Z,21.20
2019-06-26T02:53:07.640Z,21.20
2019-06-26T02:55:38.260Z,21.20
2019-06-26T02:58:09.011Z,21.20
2019-06-26T03:00:39.424Z,21.10
2019-06-26T03:03:09.767Z,21.00
2019-06-26T03:05:40.130Z,20.90
2019-06-26T03:08:10.561Z,20.80
2019-06-26T03:10:41.639Z,20.80
2019-06-26T03:13:12.408Z,20.80
2019-06-26T03:15:43.411Z,20.80
2019-06-26T03:18:13.991Z,20.70
2019-06-26T03:20:58.156Z,20.70
2019-06-26T03:23:28.613Z,20.70
2019-06-26T03:25:59.418Z,20.70
2019-06-26T03:28:29.830Z,20.80
2019-06-26T03:31:00.573Z,20.80
2019-06-26T03:33:31.213Z,20.80
2019-06-26T03:36:01.634Z,20.90
2019-06-26T03:38:32.031Z,21.00
2019-06-26T03:41:02.397Z,21.10
2019-06-26T03:43:35.416Z,21.20
2019-06-26T03:46:05.208Z,21.10
2019-06-26T03:48:36.456Z,21.00
2019-06-26T03:51:07.134Z,21.20
2019-06-26T03:53:37.525Z,21.30
2019-06-26T03:56:07.911Z,21.30
2019-06-26T03:58:38.312Z,21.40
2019-06-26T04:01:09.399Z,21.50
2019-06-26T04:03:39.801Z,21.50
2019-06-26T04:06:10.585Z,21.50
2019-06-26T04:08:41.321Z,21.50
2019-06-26T04:11:12.043Z,21.50
2019-06-26T04:13:42.441Z,21.60
2019-06-26T04:16:13.167Z,21.80
2019-06-26T04:18:44.266Z,21.90
2019-06-26T04:21:14.981Z,22.00
2019-06-26T04:23:45.865Z,22.10
2019-06-26T04:26:16.638Z,22.30
2019-06-26T04:28:47.413Z,22.40
2019-06-26T04:31:17.975Z,22.50
2019-06-26T04:33:48.694Z,22.60
2019-06-26T04:36:19.390Z,22.60
2019-06-26T04:38:49.739Z,22.70
2019-06-26T04:41:20.172Z,22.80
2019-06-26T04:43:50.894Z,22.80
2019-06-26T04:46:21.731Z,22.90
2019-06-26T04:48:52.147Z,23.00
2019-06-26T04:51:22.519Z,23.10
2019-06-26T04:53:55.684Z,23.30
2019-06-26T04:56:25.942Z,23.40
2019-06-26T04:59:16.428Z,23.50
2019-06-26T05:01:46.802Z,23.60
2019-06-26T05:04:17.514Z,23.70
2019-06-26T05:06:48.420Z,23.80
2019-06-26T05:09:19.344Z,24.00
2019-06-26T05:11:49.700Z,24.00
2019-06-26T05:14:20.426Z,24.10
2019-06-26T05:16:50.868Z,24.20
2019-06-26T05:19:21.614Z,24.30
2019-06-26T05:21:52.323Z,24.30
2019-06-26T05:24:22.909Z,24.40
2019-06-26T05:26:53.287Z,24.50
2019-06-26T05:29:23.665Z,24.50
2019-06-26T05:31:54.028Z,24.70
2019-06-26T05:34:25.052Z,24.70
2019-06-26T05:36:55.789Z,24.80
2019-06-26T05:39:26.141Z,24.80
2019-06-26T05:41:56.840Z,24.90
2019-06-26T05:44:27.551Z,24.90
2019-06-26T05:46:58.216Z,25.00
2019-06-26T05:49:28.622Z,25.00
2019-06-26T05:52:02.030Z,25.10
2019-06-26T05:54:31.068Z,25.10
2019-06-26T05:57:01.501Z,25.20
2019-06-26T05:59:31.848Z,25.30
2019-06-26T06:02:02.489Z,25.40
2019-06-26T06:04:33.158Z,25.40
2019-06-26T06:07:03.964Z,25.50
2019-06-26T06:09:34.378Z,25.70
2019-06-26T06:12:04.749Z,25.80
2019-06-26T06:14:35.155Z,25.90
2019-06-26T06:17:05.501Z,26.00
2019-06-26T06:19:36.616Z,26.00
2019-06-26T06:22:07.102Z,26.10
2019-06-26T06:24:37.500Z,26.20
2019-06-26T06:27:08.277Z,26.30
2019-06-26T06:29:38.652Z,26.40
2019-06-26T06:32:09.214Z,26.40
2019-06-26T06:34:39.905Z,26.50
2019-06-26T06:37:10.682Z,26.60
2019-06-26T06:39:41.150Z,26.70
2019-06-26T06:42:11.563Z,26.80
2019-06-26T06:44:41.907Z,26.90
2019-06-26T06:47:12.731Z,27.00
2019-06-26T06:49:43.108Z,27.10
2019-06-26T06:52:16.647Z,27.30
2019-06-26T06:54:46.272Z,27.30
2019-06-26T06:57:16.659Z,27.40
2019-06-26T06:59:47.075Z,27.50
2019-06-26T07:02:17.507Z,27.70
2019-06-26T07:04:48.220Z,27.80
2019-06-26T07:07:18.953Z,27.90
2019-06-26T07:09:49.664Z,28.10
2019-06-26T07:12:21.043Z,28.20
2019-06-26T07:14:51.608Z,28.30
2019-06-26T07:17:22.028Z,28.40
2019-06-26T07:19:52.685Z,28.60
2019-06-26T07:22:23.652Z,28.70
2019-06-26T07:24:54.024Z,28.80
2019-06-26T07:27:24.409Z,29.00
2019-06-26T07:29:55.584Z,29.10
2019-06-26T07:32:45.641Z,29.20
2019-06-26T07:35:16.395Z,29.40
2019-06-26T07:37:46.731Z,29.50
2019-06-26T07:40:17.459Z,29.60
2019-06-26T07:42:47.820Z,29.60
2019-06-26T07:45:18.864Z,29.80
2019-06-26T07:47:49.637Z,29.80
2019-06-26T07:50:20.016Z,30.00
2019-06-26T07:52:50.791Z,30.10
2019-06-26T07:55:21.333Z,30.30
2019-06-26T07:57:52.144Z,30.40
2019-06-26T08:00:23.121Z,30.50
2019-06-26T08:02:53.542Z,30.70
2019-06-26T08:05:23.915Z,30.80
2019-06-26T08:07:54.927Z,30.90
2019-06-26T08:10:25.349Z,31.00
2019-06-26T08:12:56.129Z,31.10
2019-06-26T08:15:26.872Z,31.20
2019-06-26T08:18:01.040Z,31.30
2019-06-26T08:20:29.348Z,31.50
2019-06-26T08:23:00.426Z,31.60
2019-06-26T08:25:31.057Z,31.60
2019-06-26T08:28:01.907Z,31.70
2019-06-26T08:30:32.328Z,31.90
2019-06-26T08:33:02.718Z,32.00
2019-06-26T08:35:33.128Z,32.10
2019-06-26T08:38:10.254Z,32.20
2019-06-26T08:40:35.807Z,32.30
2019-06-26T08:43:07.408Z,32.40
2019-06-26T08:45:37.740Z,32.50
2019-06-26T08:48:22.650Z,32.60
2019-06-26T08:50:40.322Z,32.70
2019-06-26T08:53:10.701Z,32.80
2019-06-26T08:55:41.430Z,32.90
2019-06-26T08:58:11.803Z,33.00
2019-06-26T09:00:42.256Z,33.10
2019-06-26T09:03:12.658Z,33.20
2019-06-26T09:05:48.131Z,33.30
2019-06-26T09:08:15.194Z,33.30
2019-06-26T09:10:46.147Z,33.40
2019-06-26T09:13:16.860Z,33.60
2019-06-26T09:15:49.871Z,33.80
2019-06-26T09:18:34.267Z,33.90
2019-06-26T09:20:52.302Z,33.90
2019-06-26T09:23:22.661Z,33.90
2019-06-26T09:25:53.408Z,34.00
2019-06-26T09:28:24.224Z,34.20
2019-06-26T09:30:55.422Z,34.30
2019-06-26T09:33:26.117Z,34.40
2019-06-26T09:35:56.958Z,34.50
2019-06-26T09:38:28.003Z,34.60
2019-06-26T09:40:59.101Z,34.70
2019-06-26T09:43:29.665Z,34.80
2019-06-26T09:46:00.536Z,35.00
2019-06-26T09:48:30.960Z,34.90
2019-06-26T09:51:01.364Z,34.90
2019-06-26T09:53:46.085Z,34.90
2019-06-26T09:56:04.217Z,34.80
2019-06-26T09:58:34.585Z,34.90
2019-06-26T10:01:05.233Z,35.10
2019-06-26T10:03:35.979Z,35.10
2019-06-26T10:06:06.316Z,35.30
2019-06-26T10:08:36.832Z,35.40
2019-06-26T10:11:07.565Z,35.50
2019-06-26T10:13:37.962Z,35.60
2019-06-26T10:16:08.348Z,35.60
2019-06-26T10:18:38.662Z,35.60
2019-06-26T10:21:09.518Z,35.70
2019-06-26T10:23:40.258Z,35.70
2019-06-26T10:26:10.777Z,35.60
2019-06-26T10:28:41.146Z,35.70
2019-06-26T10:31:11.490Z,35.70
2019-06-26T10:33:41.856Z,35.80
2019-06-26T10:36:13.030Z,35.80
2019-06-26T10:38:43.972Z,35.80
2019-06-26T10:41:14.327Z,35.90
2019-06-26T10:43:44.733Z,36.00
2019-06-26T10:46:15.856Z,36.00
2019-06-26T10:48:46.280Z,36.10
2019-06-26T10:51:16.622Z,36.20
2019-06-26T10:53:47.055Z,36.30
2019-06-26T10:56:17.420Z,36.40
2019-06-26T10:58:47.893Z,36.50
2019-06-26T11:01:18.530Z,36.60
2019-06-26T11:03:48.948Z,36.70
2019-06-26T11:06:19.614Z,36.50
2019-06-26T11:08:50.022Z,36.60
2019-06-26T11:11:20.889Z,36.70
2019-06-26T11:13:51.967Z,36.60
2019-06-26T11:16:22.845Z,36.70
2019-06-26T11:18:53.973Z,36.70
2019-06-26T11:21:24.437Z,36.90
2019-06-26T11:23:55.059Z,37.00
2019-06-26T11:26:25.745Z,37.00
2019-06-26T11:28:56.664Z,36.90
2019-06-26T11:31:27.028Z,36.80
2019-06-26T11:33:58.100Z,36.80
2019-06-26T11:36:28.462Z,36.70
2019-06-26T11:38:59.129Z,36.80
2019-06-26T11:41:29.874Z,36.90
2019-06-26T11:44:00.317Z,37.10
2019-06-26T11:46:30.927Z,37.20
2019-06-26T11:49:01.553Z,37.30
2019-06-26T11:51:32.007Z,37.20
2019-06-26T11:54:02.373Z,37.10
2019-06-26T11:56:34.483Z,37.10
2019-06-26T11:59:04.826Z,37.20
2019-06-26T12:01:35.601Z,37.20
2019-06-26T12:04:06.724Z,37.30
2019-06-26T12:06:37.754Z,37.30
2019-06-26T12:09:08.789Z,37.30
2019-06-26T12:11:39.146Z,37.30
2019-06-26T12:14:09.856Z,37.30
2019-06-26T12:16:40.242Z,37.40
2019-06-26T12:19:10.627Z,37.50
2019-06-26T12:21:40.988Z,37.60
2019-06-26T12:24:11.502Z,37.60
2019-06-26T12:26:42.223Z,37.50
2019-06-26T12:29:12.980Z,37.50
2019-06-26T12:31:43.636Z,37.50
2019-06-26T12:34:14.476Z,37.30
2019-06-26T12:36:45.193Z,37.00
2019-06-26T12:39:15.529Z,37.10
2019-06-26T12:41:45.909Z,37.30
2019-06-26T12:44:16.526Z,37.40
2019-06-26T12:46:46.951Z,37.50
2019-06-26T12:49:17.288Z,37.40
2019-06-26T12:51:48.105Z,37.50
2019-06-26T12:54:18.845Z,37.50
2019-06-26T12:56:49.504Z,37.30
2019-06-26T12:59:20.271Z,37.20
2019-06-26T13:01:50.708Z,36.90
2019-06-26T13:04:21.584Z,36.90
2019-06-26T13:06:51.921Z,37.00
2019-06-26T13:09:22.678Z,37.10
2019-06-26T13:11:53.607Z,37.30
2019-06-26T13:14:23.996Z,37.40
2019-06-26T13:16:54.395Z,37.60
2019-06-26T13:19:24.756Z,37.70
2019-06-26T13:21:55.214Z,37.60
2019-06-26T13:24:25.850Z,37.80
2019-06-26T13:26:57.382Z,37.80
2019-06-26T13:29:28.064Z,37.60
2019-06-26T13:31:58.472Z,37.70
2019-06-26T13:34:28.802Z,37.70
2019-06-26T13:36:59.219Z,37.60
2019-06-26T13:39:29.913Z,37.40
2019-06-26T13:42:00.665Z,37.20
2019-06-26T13:44:50.558Z,37.20
2019-06-26T13:47:21.330Z,37.20
2019-06-26T13:49:52.036Z,37.00
2019-06-26T13:52:22.695Z,37.00
2019-06-26T13:54:57.034Z,36.90
2019-06-26T13:57:25.655Z,37.10
2019-06-26T13:59:56.007Z,37.20
2019-06-26T14:02:26.830Z,37.00
2019-06-26T14:04:57.149Z,36.70
2019-06-26T14:07:27.872Z,36.80
2019-06-26T14:09:58.305Z,36.80
2019-06-26T14:12:28.734Z,36.90
2019-06-26T14:14:59.249Z,37.00
2019-06-26T14:17:30.281Z,37.10
2019-06-26T14:20:01.162Z,36.90
2019-06-26T14:22:32.023Z,36.70
2019-06-26T14:25:02.823Z,36.90
2019-06-26T14:27:33.261Z,36.90
2019-06-26T14:30:06.857Z,36.90
2019-06-26T14:32:37.551Z,37.00
2019-06-26T14:35:08.514Z,37.20
2019-06-26T14:37:39.232Z,37.30
2019-06-26T14:40:10.259Z,37.20
2019-06-26T14:42:40.688Z,37.10
2019-06-26T14:45:11.059Z,36.90
2019-06-26T14:47:41.790Z,36.90
2019-06-26T14:50:12.309Z,37.00
2019-06-26T14:52:45.777Z,37.10
2019-06-26T14:55:15.528Z,37.20
2019-06-26T14:57:46.298Z,37.30
2019-06-26T15:00:17.176Z,37.30
2019-06-26T15:02:47.514Z,37.20
2019-06-26T15:05:17.970Z,37.00
2019-06-26T15:07:50.243Z,36.70
2019-06-26T15:10:21.396Z,36.70
2019-06-26T15:12:51.746Z,36.70
2019-06-26T15:15:22.308Z,36.80
2019-06-26T15:17:52.648Z,36.90
2019-06-26T15:20:23.203Z,36.80
2019-06-26T15:22:53.537Z,36.80
2019-06-26T15:25:23.957Z,36.70
2019-06-26T15:27:55.929Z,36.40
2019-06-26T15:30:26.317Z,36.30
2019-06-26T15:32:56.684Z,36.20
2019-06-26T15:35:27.087Z,36.20
2019-06-26T15:37:57.464Z,36.40
2019-06-26T15:40:28.279Z,36.30
2019-06-26T15:42:58.742Z,36.40
2019-06-26T15:45:29.215Z,36.60
2019-06-26T15:47:59.599Z,36.60
2019-06-26T15:50:30.294Z,36.60
2019-06-26T15:53:00.678Z,36.50
2019-06-26T15:55:31.356Z,36.40
2019-06-26T15:58:01.702Z,36.20
2019-06-26T16:00:32.627Z,36.20
2019-06-26T16:03:02.999Z,36.30
2019-06-26T16:05:33.347Z,36.30
2019-06-26T16:08:04.152Z,36.30
2019-06-26T16:10:34.966Z,36.20
2019-06-26T16:13:05.291Z,36.10
2019-06-26T16:15:36.342Z,36.00
2019-06-26T16:18:08.342Z,36.00
2019-06-26T16:20:39.157Z,35.80
2019-06-26T16:23:09.516Z,35.80
2019-06-26T16:25:40.324Z,35.60
2019-06-26T16:28:10.669Z,35.60
2019-06-26T16:30:41.773Z,35.50
2019-06-26T16:33:12.118Z,35.50
2019-06-26T16:35:42.817Z,35.50
2019-06-26T16:38:13.552Z,35.40
2019-06-26T16:40:44.209Z,35.40
2019-06-26T16:43:14.950Z,35.40
2019-06-26T16:45:45.434Z,35.30
2019-06-26T16:48:15.751Z,35.30
2019-06-26T16:50:46.428Z,35.20
2019-06-26T16:53:17.194Z,35.00
2019-06-26T16:55:47.524Z,34.90
2019-06-26T16:58:17.964Z,34.90
2019-06-26T17:00:49.114Z,34.80
2019-06-26T17:03:19.463Z,34.80
2019-06-26T17:05:49.882Z,34.60
2019-06-26T17:08:20.229Z,34.50
2019-06-26T17:10:51.600Z,34.60
2019-06-26T17:13:22.064Z,34.50
2019-06-26T17:15:52.446Z,34.40
2019-06-26T17:18:22.806Z,34.30
2019-06-26T17:20:53.192Z,34.00
2019-06-26T17:23:23.557Z,33.90
2019-06-26T17:25:53.925Z,33.80
2019-06-26T17:28:24.304Z,33.70
2019-06-26T17:30:55.081Z,33.60
2019-06-26T17:33:25.791Z,33.50
2019-06-26T17:35:56.213Z,33.40
2019-06-26T17:38:26.697Z,33.40
2019-06-26T17:40:59.486Z,33.40
2019-06-26T17:43:29.135Z,33.40
2019-06-26T17:45:59.904Z,33.40
2019-06-26T17:48:31.028Z,33.40
2019-06-26T17:51:01.797Z,33.50
2019-06-26T17:53:32.226Z,33.50
2019-06-26T17:56:03.203Z,33.50
2019-06-26T17:58:33.961Z,33.40
2019-06-26T18:01:04.345Z,33.30
2019-06-26T18:03:34.706Z,33.20
2019-06-26T18:06:05.080Z,33.10
2019-06-26T18:08:35.482Z,33.00
2019-06-26T18:11:05.854Z,32.90
2019-06-26T18:13:36.573Z,32.80
2019-06-26T18:16:07.211Z,32.70
2019-06-26T18:18:37.567Z,32.70
2019-06-26T18:21:08.004Z,32.70
2019-06-26T18:23:38.798Z,32.60
2019-06-26T18:26:13.523Z,32.50
2019-06-26T18:28:41.431Z,32.40
2019-06-26T18:31:12.087Z,32.30
2019-06-26T18:33:44.347Z,32.20
2019-06-26T18:36:14.810Z,32.10
2019-06-26T18:38:45.548Z,32.00
2019-06-26T18:41:18.521Z,31.90
2019-06-26T18:43:48.396Z,31.80
2019-06-26T18:46:19.143Z,31.50
2019-06-26T18:48:49.509Z,31.30
2019-06-26T18:51:19.908Z,31.10
2019-06-26T18:53:53.751Z,31.00
2019-06-26T18:56:22.435Z,30.90
2019-06-26T18:58:53.511Z,30.70
2019-06-26T19:01:24.245Z,30.70
2019-06-26T19:03:55.001Z,30.60
2019-06-26T19:06:25.736Z,30.50
2019-06-26T19:08:56.071Z,30.40
2019-06-26T19:11:46.132Z,30.30
2019-06-26T19:14:16.552Z,30.20
2019-06-26T19:16:46.957Z,30.00
2019-06-26T19:19:17.362Z,29.90
2019-06-26T19:21:48.073Z,29.80
2019-06-26T19:24:18.548Z,29.70
2019-06-26T19:26:48.930Z,29.60
2019-06-26T19:29:19.595Z,29.50
2019-06-26T19:31:50.037Z,29.40
2019-06-26T19:34:20.381Z,29.30
2019-06-26T19:36:50.982Z,29.20
2019-06-26T19:39:21.468Z,29.10
2019-06-26T19:41:52.569Z,29.00
2019-06-26T19:44:23.883Z,28.90
2019-06-26T19:46:54.606Z,28.90
2019-06-26T19:49:25.129Z,28.80
2019-06-26T19:51:55.923Z,28.70
2019-06-26T19:54:31.061Z,28.70
2019-06-26T19:56:59.054Z,28.60
2019-06-26T19:59:29.485Z,28.50
2019-06-26T20:01:59.879Z,28.40
2019-06-26T20:04:30.309Z,28.40
2019-06-26T20:07:01.669Z,28.30
2019-06-26T20:09:32.128Z,28.20
2019-06-26T20:12:02.545Z,28.20
2019-06-26T20:14:33.771Z,28.10
2019-06-26T20:17:04.199Z,28.00
2019-06-26T20:19:35.596Z,28.00
2019-06-26T20:22:06.321Z,27.90
2019-06-26T20:24:44.166Z,27.80
2019-06-26T20:27:08.870Z,27.80
2019-06-26T20:29:39.600Z,27.70
2019-06-26T20:32:10.040Z,27.70
2019-06-26T20:34:40.426Z,27.60
2019-06-26T20:37:10.825Z,27.50
2019-06-26T20:39:41.588Z,27.50
2019-06-26T20:42:11.962Z,27.40
2019-06-26T20:44:42.317Z,27.30
2019-06-26T20:47:12.660Z,27.30
2019-06-26T20:49:52.686Z,27.20
2019-06-26T20:52:15.496Z,27.10
2019-06-26T20:54:59.807Z,27.10
2019-06-26T20:57:18.615Z,27.00
2019-06-26T20:59:49.018Z,26.90
2019-06-26T21:02:20.254Z,26.90
2019-06-26T21:04:50.649Z,26.90
2019-06-26T21:07:21.202Z,26.80
2019-06-26T21:09:51.642Z,26.70
2019-06-26T21:12:22.261Z,26.70
2019-06-26T21:14:53.349Z,26.60
2019-06-26T21:17:25.806Z,26.60
2019-06-26T21:19:57.352Z,26.50
2019-06-26T21:22:28.354Z,26.40
2019-06-26T21:24:58.791Z,26.40
2019-06-26T21:27:32.230Z,26.40
2019-06-26T21:30:02.197Z,26.30
2019-06-26T21:32:32.635Z,26.20
2019-06-26T21:35:03.325Z,26.10
2019-06-26T21:37:33.706Z,26.10
2019-06-26T21:40:04.686Z,26.00
2019-06-26T21:42:35.389Z,26.00
2019-06-26T21:45:06.600Z,25.80
2019-06-26T21:47:36.968Z,25.70
2019-06-26T21:50:07.653Z,25.70
2019-06-26T21:52:38.031Z,25.60
2019-06-26T21:55:08.819Z,25.60
2019-06-26T21:57:42.024Z,25.60
2019-06-26T22:00:13.374Z,25.50
2019-06-26T22:02:44.146Z,25.40
2019-06-26T22:05:14.866Z,25.10
2019-06-26T22:07:45.213Z,25.20
2019-06-26T22:10:16.283Z,25.20
2019-06-26T22:12:46.670Z,25.10
2019-06-26T22:15:17.411Z,25.10
2019-06-26T22:17:48.851Z,25.00
2019-06-26T22:20:19.874Z,25.00
2019-06-26T22:22:50.282Z,24.90
2019-06-26T22:25:20.609Z,24.90
2019-06-26T22:27:51.344Z,24.80
2019-06-26T22:30:21.713Z,24.70
2019-06-26T22:32:52.116Z,24.70
2019-06-26T22:35:22.458Z,24.60
2019-06-26T22:37:52.839Z,24.50
2019-06-26T22:40:23.210Z,24.40
2019-06-26T22:42:53.589Z,24.40
2019-06-26T22:45:24.281Z,24.30
2019-06-26T22:47:54.650Z,24.20
2019-06-26T22:50:25.061Z,24.10
2019-06-26T22:52:55.462Z,24.10
2019-06-26T22:55:25.803Z,24.00
2019-06-26T22:57:56.509Z,24.00
2019-06-26T23:00:26.929Z,23.90
2019-06-26T23:02:57.275Z,23.90
2019-06-26T23:05:27.772Z,23.80
2019-06-26T23:07:58.133Z,23.80
2019-06-26T23:10:29.271Z,23.70
2019-06-26T23:12:59.680Z,23.60
2019-06-26T23:15:30.077Z,23.60
2019-06-26T23:18:00.735Z,23.50
2019-06-26T23:20:31.446Z,23.40
2019-06-26T23:23:01.914Z,23.30
2019-06-26T23:25:32.626Z,23.20
2019-06-26T23:28:03.277Z,23.10
2019-06-26T23:30:33.645Z,23.00
2019-06-26T23:33:04.360Z,23.00
2019-06-26T23:35:35.015Z,22.90
2019-06-26T23:38:05.745Z,22.90
2019-06-26T23:40:36.535Z,22.70
2019-06-26T23:43:07.136Z,22.70
2019-06-26T23:45:37.513Z,22.60
2019-06-26T23:48:07.881Z,22.50
2019-06-26T23:50:38.221Z,22.50
2019-06-26T23:53:08.920Z,22.40
2019-06-26T23:55:39.284Z,22.30
2019-06-26T23:58:09.698Z,22.20
